createdAt,value
2023-01-13T00:00:23.798Z,1.92
2023-01-13T00:02:50.717Z,1.50
2023-01-13T00:05:17.656Z,1.35
2023-01-13T00:07:44.574Z,1.27
2023-01-13T00:10:11.992Z,1.90
2023-01-13T00:12:43.487Z,2.00
2023-01-13T00:15:11.666Z,1.67
2023-01-13T00:17:39.051Z,1.70
2023-01-13T00:20:07.140Z,2.15
2023-01-13T00:22:35.228Z,3.05
2023-01-13T00:25:04.369Z,3.25
2023-01-13T00:27:31.640Z,4.47
2023-01-13T00:29:59.172Z,4.40
2023-01-13T00:32:26.134Z,4.38
2023-01-13T00:34:53.411Z,5.43
2023-01-13T00:37:20.298Z,2.53
2023-01-13T00:39:47.311Z,2.42
2023-01-13T00:42:32.601Z,6.18
2023-01-13T00:44:59.471Z,4.32
2023-01-13T00:47:26.419Z,3.42
2023-01-13T00:49:53.332Z,5.70
2023-01-13T00:52:20.193Z,6.47
2023-01-13T00:54:47.088Z,3.17
2023-01-13T00:57:15.391Z,3.60
2023-01-13T00:59:42.371Z,7.88
2023-01-13T01:02:09.371Z,4.55
2023-01-13T01:04:36.366Z,8.20
2023-01-13T01:07:03.216Z,3.50
2023-01-13T01:09:33.448Z,3.20
2023-01-13T01:12:01.307Z,5.25
2023-01-13T01:14:28.461Z,5.75
2023-01-13T01:16:55.410Z,3.65
2023-01-13T01:19:22.391Z,5.13
2023-01-13T01:21:49.277Z,5.05
2023-01-13T01:24:16.740Z,6.97
2023-01-13T01:26:43.727Z,5.35
2023-01-13T01:29:15.251Z,7.28
2023-01-13T01:31:43.000Z,8.38
2023-01-13T01:34:09.880Z,8.15
2023-01-13T01:36:36.796Z,8.20
2023-01-13T01:39:04.857Z,5.60
2023-01-13T01:41:34.589Z,4.88
2023-01-13T01:44:42.129Z,6.88
2023-01-13T01:47:16.857Z,7.03
2023-01-13T01:49:45.940Z,2.67
2023-01-13T01:52:19.791Z,7.35
2023-01-13T01:55:01.559Z,5.20
2023-01-13T01:57:45.486Z,6.78
2023-01-13T02:00:13.417Z,4.30
2023-01-13T02:02:46.704Z,7.78
2023-01-13T02:05:14.435Z,7.13
2023-01-13T02:07:44.542Z,8.23
2023-01-13T02:10:16.722Z,11.23
2023-01-13T02:12:45.689Z,4.95
2023-01-13T02:15:21.531Z,5.07
2023-01-13T02:18:00.420Z,6.78
2023-01-13T02:21:28.409Z,8.50
2023-01-13T02:24:53.103Z,7.55
2023-01-13T02:28:06.297Z,5.90
2023-01-13T02:31:10.338Z,7.72
2023-01-13T02:33:44.408Z,11.25
2023-01-13T02:36:30.009Z,9.70
2023-01-13T02:39:16.569Z,11.50
2023-01-13T02:42:16.498Z,7.30
2023-01-13T02:44:48.326Z,6.88
2023-01-13T02:47:23.036Z,4.47
2023-01-13T02:49:56.259Z,6.78
2023-01-13T02:52:50.821Z,7.40
2023-01-13T02:55:28.961Z,4.57
2023-01-13T02:57:58.829Z,5.18
2023-01-13T03:00:26.857Z,7.07
2023-01-13T03:02:53.611Z,9.15
2023-01-13T03:05:20.449Z,3.92
2023-01-13T03:08:18.869Z,6.97
2023-01-13T03:11:02.796Z,2.38
2023-01-13T03:13:47.092Z,3.33
2023-01-13T03:16:31.279Z,3.90
2023-01-13T03:19:16.086Z,6.03
2023-01-13T03:21:56.686Z,2.08
2023-01-13T03:24:55.285Z,4.22
2023-01-13T03:27:34.114Z,8.00
2023-01-13T03:30:08.352Z,4.70
2023-01-13T03:32:44.957Z,7.32
2023-01-13T03:35:43.611Z,7.15
2023-01-13T03:38:17.293Z,8.07
2023-01-13T03:40:55.056Z,3.67
2023-01-13T03:43:51.797Z,3.08
2023-01-13T03:46:44.049Z,6.65
2023-01-13T03:49:14.930Z,7.63
2023-01-13T03:51:49.216Z,9.30
2023-01-13T03:54:19.490Z,9.07
2023-01-13T03:56:51.614Z,8.32
2023-01-13T04:02:08.274Z,11.45
2023-01-13T04:04:40.041Z,11.07
2023-01-13T04:07:15.409Z,8.20
2023-01-13T04:09:44.861Z,6.20
2023-01-13T04:12:55.267Z,5.50
2023-01-13T04:15:25.260Z,7.55
2023-01-13T04:17:52.695Z,11.10
2023-01-13T04:20:19.545Z,5.55
2023-01-13T04:22:46.264Z,15.38
2023-01-13T04:25:12.946Z,8.60
2023-01-13T04:27:39.671Z,10.93
2023-01-13T04:30:07.295Z,14.00
2023-01-13T04:32:34.002Z,16.17
2023-01-13T04:35:00.801Z,12.57
2023-01-13T04:37:27.585Z,18.60
2023-01-13T04:39:54.284Z,16.50
2023-01-13T04:42:21.003Z,11.32
2023-01-13T04:44:47.730Z,16.17
2023-01-13T04:47:14.440Z,12.77
2023-01-13T04:49:41.150Z,10.85
2023-01-13T04:52:07.870Z,10.57
2023-01-13T04:54:34.618Z,13.57
2023-01-13T04:57:01.332Z,18.70
2023-01-13T04:59:28.022Z,13.52
2023-01-13T05:01:54.855Z,11.30
2023-01-13T05:04:21.585Z,12.95
2023-01-13T05:06:48.495Z,13.90
2023-01-13T05:09:15.732Z,14.50
2023-01-13T05:12:01.059Z,17.63
2023-01-13T05:14:46.249Z,10.82
2023-01-13T05:17:23.194Z,13.30
2023-01-13T05:19:49.929Z,16.85
2023-01-13T05:22:35.067Z,17.38
2023-01-13T05:25:20.060Z,12.30
2023-01-13T05:27:46.972Z,12.30
2023-01-13T05:30:14.245Z,11.52
2023-01-13T05:32:40.982Z,6.60
2023-01-13T05:35:08.122Z,9.90
2023-01-13T05:37:35.030Z,9.65
2023-01-13T06:04:12.394Z,7.70
2023-01-13T06:06:39.175Z,10.30
2023-01-13T06:09:05.915Z,8.98
2023-01-13T06:11:32.640Z,11.00
2023-01-13T06:13:59.363Z,13.35
2023-01-13T06:16:26.056Z,9.32
2023-01-13T06:18:54.454Z,9.00
2023-01-13T06:21:21.151Z,6.97
2023-01-13T06:23:47.859Z,9.82
2023-01-13T06:26:23.069Z,10.15
2023-01-13T06:28:50.421Z,8.98
2023-01-13T06:31:18.466Z,12.77
2023-01-13T06:33:59.739Z,8.25
2023-01-13T06:36:48.930Z,7.20
2023-01-13T06:39:20.536Z,4.22
2023-01-13T06:42:08.311Z,10.35
2023-01-13T06:44:35.095Z,10.75
2023-01-13T06:47:01.900Z,12.40
2023-01-13T06:49:28.672Z,7.57
2023-01-13T06:51:55.356Z,7.15
2023-01-13T06:54:22.046Z,9.93
2023-01-13T06:56:48.759Z,7.47
2023-01-13T06:59:15.488Z,11.13
2023-01-13T07:01:42.464Z,13.70
2023-01-13T07:04:09.279Z,6.47
2023-01-13T07:06:35.989Z,10.55
2023-01-13T07:09:03.065Z,7.75
2023-01-13T07:11:29.805Z,7.65
2023-01-13T07:14:14.843Z,14.05
2023-01-13T07:16:44.360Z,8.15
2023-01-13T07:19:11.114Z,11.05
2023-01-13T07:21:37.819Z,7.45
2023-01-13T07:24:04.851Z,11.30
2023-01-13T07:26:31.531Z,15.13
2023-01-13T07:28:58.241Z,8.77
2023-01-13T07:31:25.941Z,11.25
2023-01-13T07:33:52.645Z,13.90
2023-01-13T07:36:19.368Z,9.60
2023-01-13T07:38:46.094Z,7.93
2023-01-13T07:41:33.162Z,9.15
2023-01-13T07:44:00.448Z,12.10
2023-01-13T07:46:29.203Z,9.45
2023-01-13T07:48:55.904Z,6.35
2023-01-13T07:51:22.654Z,6.45
2023-01-13T07:53:49.885Z,10.02
2023-01-13T07:56:16.772Z,12.63
2023-01-13T07:58:44.821Z,12.80
2023-01-13T08:01:13.956Z,8.82
2023-01-13T08:03:41.157Z,12.40
2023-01-13T08:06:08.984Z,7.80
2023-01-13T08:08:36.047Z,7.40
2023-01-13T08:11:05.353Z,6.47
2023-01-13T08:13:32.148Z,8.77
2023-01-13T08:16:03.082Z,9.10
2023-01-13T08:18:33.445Z,12.75
2023-01-13T08:21:14.246Z,18.58
2023-01-13T08:23:43.766Z,13.52
2023-01-13T08:26:14.555Z,15.70
2023-01-13T08:28:41.486Z,12.38
2023-01-13T08:31:13.342Z,8.90
2023-01-13T08:33:40.445Z,10.88
2023-01-13T08:36:10.327Z,12.05
2023-01-13T08:38:37.687Z,11.25
2023-01-13T08:41:13.648Z,10.43
2023-01-13T08:43:40.713Z,8.40
2023-01-13T08:46:07.695Z,13.23
2023-01-13T08:48:34.625Z,14.98
2023-01-13T08:51:04.256Z,15.85
2023-01-13T08:53:31.271Z,13.85
2023-01-13T08:55:57.999Z,11.77
2023-01-13T08:58:25.106Z,13.63
2023-01-13T09:00:51.843Z,16.17
2023-01-13T09:03:18.597Z,16.02
2023-01-13T09:05:45.319Z,15.80
2023-01-13T09:08:12.667Z,17.58
2023-01-13T09:10:40.326Z,15.60
2023-01-13T09:13:11.752Z,15.13
2023-01-13T09:15:45.128Z,13.77
2023-01-13T09:18:12.794Z,19.95
2023-01-13T09:20:39.691Z,14.50
2023-01-13T09:23:09.865Z,13.00
2023-01-13T09:25:37.145Z,18.00
2023-01-13T09:28:08.233Z,14.52
2023-01-13T09:30:36.637Z,20.38
2023-01-13T09:33:21.681Z,19.05
2023-01-13T09:35:48.418Z,16.45
2023-01-13T09:38:15.111Z,13.70
2023-01-13T09:40:43.774Z,21.48
2023-01-13T09:43:41.789Z,17.98
2023-01-13T09:46:37.982Z,20.45
2023-01-13T09:49:05.075Z,18.70
2023-01-13T09:51:39.713Z,21.67
2023-01-13T09:54:32.050Z,18.30
2023-01-13T09:57:02.831Z,17.67
2023-01-13T09:59:36.360Z,13.93
2023-01-13T10:03:10.134Z,14.10
2023-01-13T10:05:41.298Z,20.20
2023-01-13T10:08:21.922Z,16.17
2023-01-13T10:10:55.048Z,17.15
2023-01-13T10:13:28.711Z,13.82
2023-01-13T10:16:10.460Z,14.70
2023-01-13T10:19:25.249Z,21.23
2023-01-13T10:22:15.277Z,21.75
2023-01-13T10:25:09.331Z,20.92
2023-01-13T10:27:39.226Z,18.80
2023-01-13T10:30:22.017Z,17.15
2023-01-13T10:33:00.895Z,15.52
2023-01-13T10:35:54.016Z,20.23
2023-01-13T10:38:28.297Z,17.27
2023-01-13T10:41:01.573Z,18.77
2023-01-13T10:43:30.313Z,16.35
2023-01-13T10:46:00.425Z,17.45
2023-01-13T10:48:38.762Z,19.17
2023-01-13T10:51:21.748Z,14.82
2023-01-13T10:54:17.715Z,20.98
2023-01-13T10:56:45.998Z,15.50
2023-01-13T10:59:23.925Z,15.77
2023-01-13T11:02:25.276Z,20.98
2023-01-13T11:04:56.055Z,17.60
2023-01-13T11:07:39.246Z,13.60
2023-01-13T11:10:08.590Z,16.58
2023-01-13T11:12:44.778Z,17.98
2023-01-13T11:15:21.990Z,14.68
2023-01-13T11:18:06.275Z,17.48
2023-01-13T11:20:41.202Z,14.23
2023-01-13T11:23:36.362Z,19.00
2023-01-13T11:26:15.873Z,18.52
2023-01-13T11:28:57.055Z,15.18
2023-01-13T11:31:34.405Z,17.75
2023-01-13T11:34:28.451Z,14.30
2023-01-13T11:36:59.543Z,19.45
2023-01-13T11:39:57.757Z,23.20
2023-01-13T11:42:32.143Z,17.90
2023-01-13T11:45:50.155Z,17.92
2023-01-13T11:48:21.665Z,12.75
2023-01-13T11:51:24.008Z,12.48
2023-01-13T11:54:34.594Z,20.80
2023-01-13T11:57:41.418Z,16.52
2023-01-13T12:00:32.392Z,18.20
2023-01-13T12:07:33.980Z,15.25
2023-01-13T12:10:13.219Z,17.92
2023-01-13T12:13:02.145Z,10.98
2023-01-13T12:15:49.770Z,12.63
2023-01-13T12:18:34.512Z,13.48
2023-01-13T12:21:23.909Z,12.65
2023-01-13T12:24:18.936Z,18.75
2023-01-13T12:26:55.843Z,13.57
2023-01-13T12:29:37.315Z,16.50
2023-01-13T12:32:21.784Z,17.10
2023-01-13T12:35:05.577Z,16.30
2023-01-13T12:38:08.418Z,13.55
2023-01-13T12:41:07.350Z,14.82
2023-01-13T12:43:53.599Z,12.45
2023-01-13T12:46:23.100Z,15.32
2023-01-13T12:48:56.893Z,19.15
2023-01-13T12:51:28.882Z,11.60
2023-01-13T12:53:56.495Z,8.02
2023-01-13T12:56:31.236Z,14.25
2023-01-13T12:59:16.664Z,13.65
2023-01-13T13:02:05.608Z,14.55
2023-01-13T13:04:49.479Z,14.05
2023-01-13T13:07:33.903Z,10.35
2023-01-13T13:10:24.208Z,15.70
2023-01-13T13:13:15.168Z,11.95
2023-01-13T13:15:42.175Z,12.77
2023-01-13T13:18:18.115Z,13.32
2023-01-13T13:21:11.124Z,11.77
2023-01-13T13:24:02.770Z,11.10
2023-01-13T13:26:32.694Z,14.70
2023-01-13T13:29:23.848Z,15.60
2023-01-13T13:32:17.446Z,13.35
2023-01-13T13:35:05.997Z,15.07
2023-01-13T13:38:13.639Z,15.57
2023-01-13T13:41:03.444Z,19.02
2023-01-13T13:44:00.548Z,15.05
2023-01-13T13:46:49.528Z,18.15
2023-01-13T13:49:46.678Z,10.95
2023-01-13T13:52:26.442Z,14.15
2023-01-13T13:55:02.293Z,11.23
2023-01-13T13:57:39.422Z,12.40
2023-01-13T14:00:15.508Z,10.70
2023-01-13T14:02:52.971Z,10.35
2023-01-13T14:05:28.900Z,11.68
2023-01-13T14:08:16.261Z,15.90
2023-01-13T14:10:45.639Z,11.75
2023-01-13T14:13:25.600Z,17.85
2023-01-13T14:15:59.444Z,13.93
2023-01-13T14:18:28.407Z,14.75
2023-01-13T14:21:26.813Z,17.48
2023-01-13T14:23:56.896Z,14.52
2023-01-13T14:26:30.569Z,17.48
2023-01-13T14:29:01.033Z,17.52
2023-01-13T14:31:28.899Z,10.55
2023-01-13T14:33:59.355Z,19.05
2023-01-13T14:36:32.061Z,10.77
2023-01-13T14:39:04.715Z,15.02
2023-01-13T14:41:41.499Z,18.00
2023-01-13T14:44:34.121Z,17.13
2023-01-13T14:47:27.773Z,14.65
2023-01-13T14:50:07.559Z,21.13
2023-01-13T14:52:48.311Z,16.23
2023-01-13T14:55:40.173Z,15.60
2023-01-13T14:58:21.869Z,10.32
2023-01-13T15:00:50.883Z,15.82
2023-01-13T15:03:21.514Z,19.17
2023-01-13T15:05:51.607Z,20.02
2023-01-13T15:08:29.872Z,19.25
2023-01-13T15:11:20.247Z,20.08
2023-01-13T15:13:55.768Z,16.48
2023-01-13T15:16:25.891Z,17.30
2023-01-13T15:18:54.885Z,11.02
2023-01-13T15:21:23.100Z,16.58
2023-01-13T15:23:50.086Z,16.02
2023-01-13T15:26:26.878Z,15.25
2023-01-13T15:28:56.840Z,17.38
2023-01-13T15:31:25.136Z,15.40
2023-01-13T15:33:51.977Z,13.35
2023-01-13T15:36:25.005Z,19.85
2023-01-13T15:38:51.781Z,14.73
2023-01-13T15:41:38.804Z,12.63
2023-01-13T15:44:24.332Z,15.95
2023-01-13T15:46:52.071Z,19.75
2023-01-13T15:49:26.884Z,15.43
2023-01-13T15:51:53.811Z,18.27
2023-01-13T15:54:24.309Z,20.85
2023-01-13T15:56:51.884Z,15.25
2023-01-13T15:59:26.935Z,21.52
2023-01-13T16:01:53.722Z,15.30
2023-01-13T16:04:20.524Z,13.20
2023-01-13T16:06:47.446Z,14.48
2023-01-13T16:09:15.042Z,15.07
2023-01-13T16:11:41.796Z,17.40
2023-01-13T16:14:08.522Z,15.75
2023-01-13T16:16:36.806Z,9.25
2023-01-13T16:19:03.622Z,11.02
2023-01-13T16:21:30.373Z,13.90
2023-01-13T16:23:57.110Z,11.90
2023-01-13T16:26:27.772Z,13.80
2023-01-13T16:28:57.560Z,14.65
2023-01-13T16:31:31.871Z,20.15
2023-01-13T16:34:01.120Z,17.23
2023-01-13T16:36:30.489Z,17.73
2023-01-13T16:38:57.654Z,10.90
2023-01-13T16:41:26.880Z,14.45
2023-01-13T16:43:54.169Z,15.30
2023-01-13T16:46:27.232Z,13.18
2023-01-13T16:48:57.974Z,12.88
2023-01-13T16:51:24.826Z,17.77
2023-01-13T16:53:51.889Z,15.02
2023-01-13T16:56:25.385Z,13.60
2023-01-13T16:58:55.513Z,14.60
2023-01-13T17:01:25.716Z,16.35
2023-01-13T17:03:52.897Z,20.33
2023-01-13T17:06:28.276Z,17.10
2023-01-13T17:09:00.175Z,17.38
2023-01-13T17:11:26.861Z,10.68
2023-01-13T17:13:53.570Z,15.70
2023-01-13T17:16:24.162Z,12.23
2023-01-13T17:18:50.927Z,16.10
2023-01-13T17:21:18.247Z,19.80
2023-01-13T17:23:46.619Z,17.90
2023-01-13T17:26:37.106Z,11.30
2023-01-13T17:29:08.582Z,13.75
2023-01-13T17:31:36.143Z,9.18
2023-01-13T17:34:04.213Z,16.50
2023-01-13T17:36:31.284Z,14.27
2023-01-13T17:38:58.764Z,16.35
2023-01-13T17:41:26.451Z,15.80
2023-01-13T17:43:53.872Z,16.00
2023-01-13T17:46:22.756Z,11.90
2023-01-13T17:48:51.169Z,12.15
2023-01-13T17:51:19.171Z,11.77
2023-01-13T17:53:46.535Z,12.75
2023-01-13T17:56:15.014Z,11.63
2023-01-13T17:58:41.791Z,11.75
2023-01-13T18:01:16.042Z,11.13
2023-01-13T18:03:42.814Z,12.45
2023-01-13T18:06:22.204Z,12.63
2023-01-13T18:08:50.188Z,26.90
2023-01-13T18:11:20.297Z,16.95
2023-01-13T18:13:54.669Z,12.73
2023-01-13T18:16:21.915Z,8.68
2023-01-13T18:18:52.025Z,10.27
2023-01-13T18:21:40.851Z,15.63
2023-01-13T18:24:31.853Z,21.42
2023-01-13T18:27:17.494Z,17.60
2023-01-13T18:29:44.969Z,16.25
2023-01-13T18:32:12.345Z,15.52
2023-01-13T18:34:39.549Z,17.48
2023-01-13T18:37:08.956Z,14.20
2023-01-13T18:39:39.372Z,12.45
2023-01-13T18:42:26.317Z,13.70
2023-01-13T18:44:54.034Z,11.35
2023-01-13T18:47:20.728Z,10.13
2023-01-13T18:49:47.557Z,16.92
2023-01-13T18:52:14.259Z,9.65
2023-01-13T18:54:41.091Z,8.88
2023-01-13T18:57:08.208Z,13.38
2023-01-13T18:59:34.960Z,17.00
2023-01-13T19:02:03.169Z,15.88
2023-01-13T19:04:29.979Z,16.02
2023-01-13T19:07:00.901Z,10.45
2023-01-13T19:09:29.423Z,13.60
2023-01-13T19:11:57.471Z,12.38
2023-01-13T19:14:34.407Z,10.88
2023-01-13T19:17:04.458Z,11.18
2023-01-13T19:19:31.833Z,15.15
2023-01-13T19:21:59.015Z,15.20
2023-01-13T19:24:26.008Z,13.82
2023-01-13T19:26:54.504Z,13.93
2023-01-13T19:29:21.601Z,15.93
2023-01-13T19:31:48.347Z,16.17
2023-01-13T19:34:15.544Z,15.48
2023-01-13T19:36:42.287Z,19.88
2023-01-13T19:39:10.104Z,20.05
2023-01-13T19:41:55.791Z,18.27
2023-01-13T19:44:41.016Z,21.67
2023-01-13T19:47:07.733Z,19.33
2023-01-13T19:49:34.498Z,10.30
2023-01-13T19:52:01.213Z,14.35
2023-01-13T19:54:28.010Z,16.88
2023-01-13T19:56:54.707Z,10.35
2023-01-13T19:59:28.736Z,18.45
2023-01-13T20:01:57.226Z,17.48
2023-01-13T20:04:33.556Z,18.23
2023-01-13T20:07:01.048Z,16.10
2023-01-13T20:09:30.565Z,22.85
2023-01-13T20:11:57.304Z,22.30
2023-01-13T20:14:25.508Z,16.23
2023-01-13T20:16:52.490Z,20.23
2023-01-13T20:19:19.182Z,19.60
2023-01-13T20:21:45.942Z,21.10
2023-01-13T20:24:17.436Z,17.23
2023-01-13T20:26:45.907Z,19.73
2023-01-13T20:29:13.266Z,20.88
2023-01-13T20:31:40.058Z,16.85
2023-01-13T20:34:06.793Z,24.52
2023-01-13T20:36:37.174Z,22.83
2023-01-13T20:39:06.463Z,26.15
2023-01-13T20:41:51.631Z,15.55
2023-01-13T20:44:18.330Z,31.13
2023-01-13T20:46:45.559Z,17.27
2023-01-13T20:49:14.890Z,14.48
2023-01-13T20:51:42.730Z,16.85
2023-01-13T20:54:09.484Z,15.98
2023-01-13T20:56:36.872Z,16.08
2023-01-13T20:59:04.496Z,12.95
2023-01-13T21:01:32.102Z,17.52
2023-01-13T21:04:00.186Z,21.15
2023-01-13T21:06:29.350Z,15.63
2023-01-13T21:08:56.268Z,13.25
2023-01-13T21:11:45.161Z,19.15
2023-01-13T21:14:41.150Z,22.83
2023-01-13T21:17:28.548Z,15.30
2023-01-13T21:19:55.644Z,15.48
2023-01-13T21:22:22.700Z,17.70
2023-01-13T21:24:49.413Z,14.38
2023-01-13T21:27:16.396Z,17.10
2023-01-13T21:29:44.491Z,21.48
2023-01-13T21:32:11.799Z,17.58
2023-01-13T21:34:38.693Z,11.98
2023-01-13T21:37:05.448Z,21.95
2023-01-13T21:39:32.180Z,27.55
2023-01-13T21:42:17.339Z,26.23
2023-01-13T21:45:02.478Z,19.90
2023-01-13T21:47:47.595Z,21.33
2023-01-13T21:50:18.096Z,19.67
2023-01-13T21:52:47.885Z,30.13
2023-01-13T21:55:27.861Z,16.65
2023-01-13T21:58:01.176Z,25.13
2023-01-13T22:00:30.904Z,19.73
2023-01-13T22:02:59.443Z,34.70
2023-01-13T22:05:26.799Z,22.95
2023-01-13T22:07:53.548Z,21.02
2023-01-13T22:10:24.076Z,21.73
2023-01-13T22:12:56.651Z,23.08
2023-01-13T22:15:29.060Z,23.38
2023-01-13T22:17:56.342Z,20.95
2023-01-13T22:20:23.361Z,18.05
2023-01-13T22:22:50.295Z,25.67
2023-01-13T22:25:20.001Z,22.77
2023-01-13T22:27:48.193Z,21.92
2023-01-13T22:30:21.561Z,22.05
2023-01-13T22:32:48.923Z,24.48
2023-01-13T22:35:16.262Z,24.25
2023-01-13T22:37:43.416Z,19.23
2023-01-13T22:40:12.208Z,26.50
2023-01-13T22:42:42.951Z,26.45
2023-01-13T22:45:14.482Z,29.52
2023-01-13T22:47:41.584Z,22.65
2023-01-13T22:50:09.317Z,25.60
2023-01-13T22:52:36.425Z,24.30
2023-01-13T22:55:03.655Z,19.98
2023-01-13T22:57:36.662Z,22.00
2023-01-13T23:00:10.556Z,29.63
2023-01-13T23:02:38.833Z,22.73
2023-01-13T23:05:05.957Z,22.63
2023-01-13T23:07:32.654Z,25.58
2023-01-13T23:09:59.803Z,36.58
2023-01-13T23:12:26.620Z,25.63
2023-01-13T23:14:54.423Z,24.05
2023-01-13T23:17:21.213Z,21.88
2023-01-13T23:19:47.909Z,16.83
2023-01-13T23:22:15.445Z,19.77
2023-01-13T23:24:42.235Z,22.48
2023-01-13T23:27:08.915Z,18.25
2023-01-13T23:29:35.617Z,18.77
2023-01-13T23:32:02.312Z,18.48
2023-01-13T23:34:29.047Z,18.80
2023-01-13T23:36:55.752Z,25.35
2023-01-13T23:39:22.523Z,30.35
2023-01-13T23:41:49.220Z,16.90
2023-01-13T23:44:16.287Z,26.98
2023-01-13T23:46:42.995Z,32.83
2023-01-13T23:49:09.698Z,21.92
2023-01-13T23:51:36.384Z,18.00
2023-01-13T23:54:03.197Z,28.88
2023-01-13T23:56:31.352Z,20.52
2023-01-13T23:58:58.810Z,25.60
